Time;durP1;ratioP1;P1;durP2;ratioP2;P2;SDS_P1;SDS_P2;PMS_P1;PMS_P2;Temp;Humidity;BMP_temperature;BMP_pressure;BME280_temperature;BME280_humidity;BME280_pressure;Samples;Min_cycle;Max_cycle;Signal;HPM_P1;HPM_P2
2022/01/06 00:01:53;;;;;;;0.10;0.10;;;3.80;99.90;;;;;;5038150;28;20021;-72
2022/01/06 00:04:19;;;;;;;0.80;0.80;;;3.80;99.90;;;;;;5039411;28;20478;-72
2022/01/06 00:06:45;;;;;;;0.10;0.10;;;3.80;99.90;;;;;;5037146;28;20017;-71
2022/01/06 00:09:17;;;;;;;0.10;0.10;;;3.80;99.90;;;;;;5042558;28;20439;-72
2022/01/06 00:11:43;;;;;;;0.10;0.10;;;3.80;99.90;;;;;;5040024;28;20113;-74
2022/01/06 00:24:21;;;;;;;0.10;0.10;;;3.90;99.90;;;;;;5040621;28;20182;-73
2022/01/06 00:26:48;;;;;;;0.10;0.10;;;3.90;99.90;;;;;;5039139;28;20066;-72
2022/01/06 00:29:15;;;;;;;0.10;0.10;;;3.90;99.90;;;;;;5040002;28;20013;-72
2022/01/06 00:31:41;;;;;;;0.10;0.10;;;3.80;99.90;;;;;;5039862;28;20018;-72
2022/01/06 00:34:10;;;;;;;0.10;0.10;;;3.80;99.90;;;;;;5039051;28;20029;-71
2022/01/06 00:36:37;;;;;;;0.10;0.10;;;3.90;99.90;;;;;;5039807;28;20075;-73
2022/01/06 00:39:03;;;;;;;0.10;0.10;;;3.80;99.90;;;;;;5042241;28;20044;-74
2022/01/06 00:41:31;;;;;;;0.10;0.10;;;3.80;99.90;;;;;;5043829;28;20215;-74
2022/01/06 00:43:57;;;;;;;0.10;0.10;;;3.80;99.90;;;;;;5044559;28;20048;-74
2022/01/06 00:46:22;;;;;;;0.10;0.10;;;3.80;99.90;;;;;;5040583;28;20122;-74
2022/01/06 00:48:48;;;;;;;0.10;0.10;;;3.80;99.90;;;;;;5045740;28;20494;-74
2022/01/06 00:51:14;;;;;;;0.10;0.10;;;3.80;99.90;;;;;;5046239;28;20037;-73
2022/01/06 00:53:39;;;;;;;0.10;0.10;;;3.80;99.90;;;;;;5049363;28;20104;-74
2022/01/06 00:56:05;;;;;;;0.10;0.10;;;3.80;99.90;;;;;;5048880;28;20083;-75
2022/01/06 00:58:30;;;;;;;0.10;0.10;;;3.80;99.90;;;;;;5051745;28;20390;-75
2022/01/06 01:00:56;;;;;;;0.10;0.10;;;3.80;99.90;;;;;;5045995;28;20064;-74
2022/01/06 01:03:22;;;;;;;0.10;0.10;;;3.80;99.90;;;;;;5048951;28;20060;-74
2022/01/06 01:05:51;;;;;;;0.10;0.10;;;3.90;99.90;;;;;;5048125;28;20104;-75
2022/01/06 01:08:17;;;;;;;0.10;0.10;;;3.80;99.90;;;;;;5052006;28;20020;-74
2022/01/06 01:10:44;;;;;;;0.10;0.10;;;3.80;99.90;;;;;;5048946;28;20057;-74
2022/01/06 01:13:13;;;;;;;0.10;0.10;;;3.80;99.90;;;;;;5049263;28;20056;-74
2022/01/06 01:15:54;;;;;;;0.10;0.10;;;3.90;99.90;;;;;;5032583;28;20041;-73
2022/01/06 01:18:21;;;;;;;0.10;0.10;;;3.90;99.90;;;;;;5029789;28;20033;-75
2022/01/06 01:20:47;;;;;;;0.10;0.10;;;3.80;99.90;;;;;;5029929;28;20091;-76
2022/01/06 01:23:14;;;;;;;0.10;0.10;;;3.80;99.90;;;;;;5032115;28;20034;-75
2022/01/06 01:25:39;;;;;;;0.10;0.10;;;3.90;99.90;;;;;;5049005;28;20048;-76
2022/01/06 01:28:05;;;;;;;0.10;0.10;;;3.90;99.90;;;;;;5012651;28;20484;-74
2022/01/06 01:30:40;;;;;;;0.10;0.10;;;3.80;99.90;;;;;;5029384;28;20048;-75
2022/01/06 01:33:14;;;;;;;0.10;0.10;;;4.00;99.90;;;;;;5033186;28;20028;-74
2022/01/06 01:35:40;;;;;;;0.10;0.10;;;3.90;99.90;;;;;;5037027;28;20025;-75
2022/01/06 01:38:06;;;;;;;0.10;0.10;;;3.90;99.90;;;;;;5074321;22;20045;-71
2022/01/06 01:40:32;;;;;;;0.10;0.10;;;4.00;99.90;;;;;;5061281;28;20520;-71
2022/01/06 01:42:57;;;;;;;0.10;0.10;;;4.00;99.90;;;;;;5072750;28;20795;-72
2022/01/06 01:45:30;;;;;;;2.55;2.45;;;3.90;99.90;;;;;;5070403;28;20504;-72
2022/01/06 01:47:59;;;;;;;0.10;0.10;;;3.90;99.90;;;;;;5072973;28;20096;-72
2022/01/06 01:50:26;;;;;;;0.00;0.00;;;3.90;99.90;;;;;;5072498;28;20046;-70
2022/01/06 01:52:54;;;;;;;0.10;0.10;;;3.90;99.90;;;;;;5072419;28;20016;-71
2022/01/06 01:55:23;;;;;;;0.10;0.10;;;3.80;99.90;;;;;;5068394;28;20497;-71
2022/01/06 01:57:49;;;;;;;0.10;0.10;;;3.80;99.90;;;;;;5072643;28;20032;-71
2022/01/06 02:00:17;;;;;;;0.10;0.10;;;3.80;99.90;;;;;;5072389;28;20040;-71
2022/01/06 02:02:43;;;;;;;0.10;0.10;;;3.80;99.90;;;;;;5064946;28;20035;-71
2022/01/06 02:05:09;;;;;;;0.10;0.10;;;3.80;99.90;;;;;;5064579;28;20036;-71
2022/01/06 02:07:39;;;;;;;0.10;0.10;;;3.80;99.90;;;;;;5072212;28;20027;-72
2022/01/06 02:10:05;;;;;;;0.10;0.10;;;3.80;99.90;;;;;;5072475;28;20020;-71
2022/01/06 02:12:36;;;;;;;0.10;0.10;;;3.80;99.90;;;;;;5052364;28;20056;-71
2022/01/06 02:15:03;;;;;;;0.10;0.10;;;3.80;99.90;;;;;;5075023;28;20020;-72
2022/01/06 02:17:28;;;;;;;0.10;0.10;;;3.80;99.90;;;;;;5076638;28;20135;-72
2022/01/06 02:19:59;;;;;;;0.10;0.10;;;3.80;99.90;;;;;;5076088;28;20059;-73
2022/01/06 02:22:26;;;;;;;0.10;0.10;;;3.80;99.90;;;;;;5090258;28;20053;-71
2022/01/06 02:24:52;;;;;;;0.10;0.10;;;3.80;99.90;;;;;;5091947;28;20025;-71
2022/01/06 02:27:22;;;;;;;0.10;0.10;;;3.80;99.90;;;;;;5092104;28;20051;-71
2022/01/06 02:29:50;;;;;;;0.10;0.10;;;3.80;99.90;;;;;;5057343;28;20021;-71
2022/01/06 02:32:17;;;;;;;0.10;0.10;;;3.80;99.90;;;;;;5058804;28;20537;-71
2022/01/06 02:34:44;;;;;;;0.10;0.10;;;3.80;99.90;;;;;;5074837;28;20019;-72
2022/01/06 02:37:10;;;;;;;0.10;0.10;;;3.80;99.90;;;;;;5081695;28;20058;-72
2022/01/06 02:39:36;;;;;;;0.10;0.10;;;3.80;99.90;;;;;;5071737;28;20112;-72
2022/01/06 02:42:02;;;;;;;0.10;0.10;;;3.70;99.90;;;;;;5071687;28;20553;-72
2022/01/06 02:44:28;;;;;;;0.25;0.25;;;3.80;99.90;;;;;;5071680;28;20115;-70
2022/01/06 02:46:54;;;;;;;0.10;0.10;;;3.80;99.90;;;;;;5060714;28;20112;-71
2022/01/06 02:49:20;;;;;;;0.10;0.10;;;3.80;99.90;;;;;;5051769;28;20027;-70
2022/01/06 02:51:46;;;;;;;0.10;0.10;;;3.80;99.90;;;;;;5070373;28;20031;-72
2022/01/06 02:54:13;;;;;;;0.10;0.10;;;3.80;99.90;;;;;;5071868;28;20024;-72
2022/01/06 02:56:41;;;;;;;0.10;0.10;;;3.80;99.90;;;;;;5056956;28;20104;-71
2022/01/06 02:59:07;;;;;;;0.10;0.10;;;3.80;99.90;;;;;;5058863;28;20024;-71
2022/01/06 03:01:38;;;;;;;0.10;0.10;;;3.80;99.90;;;;;;5087657;28;20020;-71
2022/01/06 03:04:04;;;;;;;0.10;0.10;;;3.90;99.90;;;;;;5091595;28;20032;-72
2022/01/06 03:06:30;;;;;;;0.10;0.10;;;3.80;99.90;;;;;;5064726;28;20035;-71
2022/01/06 03:08:55;;;;;;;0.10;0.10;;;3.80;99.90;;;;;;5051441;28;20024;-72
2022/01/06 03:11:25;;;;;;;0.10;0.10;;;3.90;99.90;;;;;;5051711;28;20028;-71
2022/01/06 03:13:54;;;;;;;0.10;0.10;;;3.90;99.90;;;;;;5051316;28;20024;-72
2022/01/06 03:16:19;;;;;;;0.10;0.10;;;3.80;99.90;;;;;;5076313;28;20058;-71
2022/01/06 03:18:45;;;;;;;0.10;0.10;;;4.00;99.90;;;;;;5091250;28;20540;-72
2022/01/06 03:21:11;;;;;;;0.10;0.10;;;3.90;99.90;;;;;;5081693;28;20109;-72
2022/01/06 03:23:37;;;;;;;0.10;0.10;;;3.90;99.90;;;;;;5057515;28;20039;-71
2022/01/06 03:26:03;;;;;;;0.10;0.10;;;3.90;99.90;;;;;;5066609;28;20047;-71
2022/01/06 03:28:28;;;;;;;0.10;0.10;;;4.00;99.90;;;;;;5079525;28;20458;-73
2022/01/06 03:30:54;;;;;;;0.10;0.10;;;4.00;99.90;;;;;;5070958;28;20119;-72
2022/01/06 03:33:20;;;;;;;0.20;0.20;;;4.00;99.90;;;;;;5065979;28;20027;-72
2022/01/06 03:35:46;;;;;;;0.10;0.10;;;4.00;99.90;;;;;;5070430;28;20036;-72
2022/01/06 03:38:11;;;;;;;0.10;0.10;;;4.00;99.90;;;;;;5069974;28;20036;-71
2022/01/06 03:40:39;;;;;;;0.10;0.10;;;4.00;99.90;;;;;;5070444;28;20031;-71
2022/01/06 03:43:05;;;;;;;0.10;0.10;;;4.00;99.90;;;;;;5051594;28;20517;-71
2022/01/06 03:45:32;;;;;;;0.63;0.63;;;4.00;99.90;;;;;;5060375;28;20036;-71
2022/01/06 03:47:59;;;;;;;0.10;0.10;;;4.00;99.90;;;;;;5090765;28;20013;-72
2022/01/06 03:50:24;;;;;;;0.10;0.10;;;3.90;99.90;;;;;;5063523;28;20516;-71
2022/01/06 03:52:50;;;;;;;0.10;0.10;;;3.90;99.90;;;;;;5080546;28;20505;-71
2022/01/06 03:55:18;;;;;;;0.00;0.00;;;3.90;99.90;;;;;;5072515;28;20032;-71
2022/01/06 03:57:44;;;;;;;0.10;0.10;;;3.80;99.90;;;;;;5063699;28;20035;-72
2022/01/06 04:00:13;;;;;;;0.10;0.10;;;3.80;99.90;;;;;;5045040;28;20040;-72
2022/01/06 04:02:39;;;;;;;0.10;0.10;;;3.80;99.90;;;;;;5050177;28;20024;-72
2022/01/06 04:05:05;;;;;;;0.10;0.10;;;3.80;99.90;;;;;;5051130;28;20041;-71
2022/01/06 04:07:32;;;;;;;0.10;0.10;;;3.70;99.90;;;;;;5067787;28;20197;-71
2022/01/06 04:09:58;;;;;;;0.10;0.10;;;3.70;99.90;;;;;;5066247;28;20021;-73
2022/01/06 04:12:24;;;;;;;0.10;0.10;;;3.70;99.90;;;;;;5066207;28;20441;-72
2022/01/06 04:14:50;;;;;;;0.10;0.10;;;3.80;99.90;;;;;;5065137;28;20032;-72
2022/01/06 04:17:16;;;;;;;0.10;0.10;;;3.80;99.90;;;;;;5070112;28;20529;-71
2022/01/06 04:19:41;;;;;;;0.10;0.10;;;3.80;99.90;;;;;;5069786;28;20032;-71
2022/01/06 04:22:07;;;;;;;0.10;0.10;;;3.90;99.90;;;;;;5069756;28;20036;-71
2022/01/06 04:24:34;;;;;;;0.10;0.10;;;3.90;99.90;;;;;;5069177;28;20108;-72
2022/01/06 04:27:00;;;;;;;0.00;0.00;;;3.90;99.90;;;;;;5069952;28;20043;-71
2022/01/06 04:29:25;;;;;;;0.10;0.10;;;3.90;99.90;;;;;;5067696;28;20052;-71
2022/01/06 04:31:51;;;;;;;0.10;0.10;;;4.00;99.90;;;;;;5074236;28;20470;-71
2022/01/06 04:34:17;;;;;;;0.38;0.38;;;4.00;99.90;;;;;;5067577;28;20029;-71
2022/01/06 04:36:48;;;;;;;0.10;0.10;;;4.00;99.90;;;;;;5070376;28;20032;-71
2022/01/06 04:39:14;;;;;;;0.30;0.30;;;4.00;99.90;;;;;;5080857;28;20679;-71
2022/01/06 04:41:39;;;;;;;1.58;1.48;;;4.00;99.90;;;;;;5072155;28;20089;-72
2022/01/06 04:44:05;;;;;;;0.10;0.10;;;4.00;99.90;;;;;;5069651;28;20067;-72
2022/01/06 04:46:31;;;;;;;0.10;0.10;;;4.00;99.90;;;;;;5067417;28;20413;-72
2022/01/06 04:48:56;;;;;;;0.00;0.00;;;4.00;99.90;;;;;;5068208;28;20025;-72
2022/01/06 04:51:22;;;;;;;0.10;0.10;;;4.00;99.90;;;;;;5068541;28;20052;-71
2022/01/06 04:53:48;;;;;;;0.10;0.10;;;4.00;99.90;;;;;;5069359;28;20539;-72
2022/01/06 04:56:13;;;;;;;0.70;0.70;;;4.00;99.90;;;;;;5069117;28;20183;-72
2022/01/06 04:58:39;;;;;;;0.10;0.10;;;4.00;99.90;;;;;;5066699;28;20089;-72
2022/01/06 05:01:05;;;;;;;0.10;0.10;;;4.00;99.90;;;;;;5074200;28;20082;-71
2022/01/06 05:03:30;;;;;;;0.10;0.10;;;4.10;99.90;;;;;;5089729;28;20046;-71
2022/01/06 05:05:56;;;;;;;0.10;0.10;;;4.10;99.90;;;;;;5084214;28;20040;-71
2022/01/06 05:08:22;;;;;;;0.10;0.10;;;4.00;99.90;;;;;;5073161;28;20028;-71
2022/01/06 05:10:47;;;;;;;0.10;0.10;;;3.90;99.90;;;;;;5075163;28;20031;-73
2022/01/06 05:13:13;;;;;;;0.10;0.10;;;3.90;99.90;;;;;;5093659;28;20024;-70
2022/01/06 05:15:38;;;;;;;0.10;0.10;;;4.00;99.90;;;;;;5077214;28;20109;-70
2022/01/06 05:18:04;;;;;;;0.10;0.10;;;4.00;99.90;;;;;;5053334;28;20103;-70
2022/01/06 05:20:30;;;;;;;1.05;1.02;;;3.90;99.90;;;;;;5053175;28;20506;-70
2022/01/06 05:22:57;;;;;;;0.10;0.10;;;3.90;99.90;;;;;;5072825;28;20043;-70
2022/01/06 05:25:29;;;;;;;0.10;0.10;;;3.90;99.90;;;;;;5072267;28;20111;-71
2022/01/06 05:27:55;;;;;;;0.68;0.68;;;3.90;99.90;;;;;;5054915;28;20024;-71
2022/01/06 05:30:22;;;;;;;0.10;0.10;;;3.90;99.90;;;;;;5072785;28;20040;-71
2022/01/06 05:32:47;;;;;;;0.10;0.10;;;3.90;99.90;;;;;;5072023;28;20079;-71
2022/01/06 05:35:14;;;;;;;0.10;0.10;;;3.90;99.90;;;;;;5072571;28;20052;-71
2022/01/06 05:37:39;;;;;;;0.10;0.10;;;3.90;99.90;;;;;;5088016;28;20036;-71
2022/01/06 05:40:06;;;;;;;0.10;0.10;;;3.80;99.90;;;;;;5074843;28;20041;-71
2022/01/06 05:42:31;;;;;;;0.10;0.10;;;3.80;99.90;;;;;;5072845;28;20036;-71
2022/01/06 05:44:57;;;;;;;0.10;0.10;;;3.80;99.90;;;;;;5072311;28;20051;-71
2022/01/06 05:47:23;;;;;;;0.10;0.10;;;3.80;99.90;;;;;;5072599;28;20083;-71
2022/01/06 05:49:48;;;;;;;0.10;0.10;;;3.90;99.90;;;;;;5066008;28;20025;-69
2022/01/06 05:52:14;;;;;;;0.10;0.10;;;3.80;99.90;;;;;;5087575;28;20111;-69
2022/01/06 05:54:40;;;;;;;0.10;0.10;;;3.80;99.90;;;;;;5071839;28;20060;-70
2022/01/06 05:57:08;;;;;;;0.10;0.10;;;3.80;99.90;;;;;;5071286;28;20076;-71
2022/01/06 05:59:33;;;;;;;0.10;0.10;;;3.90;99.90;;;;;;5063422;28;20077;-71
2022/01/06 06:01:59;;;;;;;0.10;0.10;;;3.90;99.90;;;;;;5073650;28;20105;-70
2022/01/06 06:04:25;;;;;;;0.10;0.10;;;3.90;99.90;;;;;;5072527;28;20041;-71
2022/01/06 06:06:51;;;;;;;0.10;0.10;;;3.90;99.90;;;;;;5064115;28;20704;-71
2022/01/06 06:09:16;;;;;;;0.10;0.10;;;3.90;99.90;;;;;;5052480;28;20025;-71
2022/01/06 06:11:42;;;;;;;0.10;0.10;;;3.90;99.90;;;;;;5069200;28;20501;-70
2022/01/06 06:14:08;;;;;;;0.10;0.10;;;3.90;99.90;;;;;;5092823;28;20032;-75
2022/01/06 06:16:34;;;;;;;0.10;0.10;;;3.90;99.90;;;;;;5066748;28;20108;-70
2022/01/06 06:18:59;;;;;;;0.10;0.10;;;4.00;99.90;;;;;;5051823;28;20449;-71
2022/01/06 06:21:25;;;;;;;0.10;0.10;;;3.90;99.90;;;;;;5062143;28;20028;-71
2022/01/06 06:23:51;;;;;;;0.10;0.10;;;3.90;99.90;;;;;;5071833;28;20082;-71
2022/01/06 06:26:16;;;;;;;0.10;0.10;;;4.00;99.90;;;;;;5068786;28;20033;-70
2022/01/06 06:28:42;;;;;;;0.10;0.10;;;4.00;99.90;;;;;;5071780;28;20024;-71
2022/01/06 06:31:08;;;;;;;0.10;0.10;;;4.00;99.90;;;;;;5072237;28;20032;-71
2022/01/06 06:33:34;;;;;;;0.10;0.10;;;4.00;99.90;;;;;;5068965;28;20031;-71
2022/01/06 06:35:59;;;;;;;0.10;0.10;;;4.00;99.90;;;;;;5071658;28;20024;-71
2022/01/06 06:38:25;;;;;;;0.10;0.10;;;4.00;99.90;;;;;;5091858;28;20040;-71
2022/01/06 06:40:51;;;;;;;0.10;0.10;;;4.00;99.90;;;;;;5088529;28;20419;-71
2022/01/06 06:43:17;;;;;;;0.10;0.10;;;4.00;99.90;;;;;;5091565;28;20028;-70
2022/01/06 06:45:42;;;;;;;0.10;0.10;;;4.00;99.90;;;;;;5091537;28;20477;-70
2022/01/06 06:48:09;;;;;;;0.10;0.10;;;4.00;99.90;;;;;;5091951;28;20405;-71
2022/01/06 06:50:35;;;;;;;0.10;0.10;;;4.10;99.90;;;;;;5064338;28;20024;-71
2022/01/06 06:53:02;;;;;;;0.10;0.10;;;4.10;99.90;;;;;;5071850;28;20021;-71
2022/01/06 06:55:28;;;;;;;0.10;0.10;;;4.10;99.90;;;;;;5075160;28;20024;-71
2022/01/06 06:57:54;;;;;;;0.50;0.50;;;4.10;99.90;;;;;;5081449;28;20032;-71
2022/01/06 07:00:19;;;;;;;0.10;0.10;;;4.00;99.90;;;;;;5074038;28;20101;-72
2022/01/06 07:02:45;;;;;;;0.10;0.10;;;4.00;99.90;;;;;;5091485;28;20031;-71
2022/01/06 07:05:11;;;;;;;0.10;0.10;;;3.90;99.90;;;;;;5091288;28;20068;-72
2022/01/06 07:07:37;;;;;;;0.10;0.10;;;3.90;99.90;;;;;;5078484;28;20032;-70
2022/01/06 07:10:04;;;;;;;0.10;0.10;;;3.90;99.90;;;;;;5057134;28;20543;-71
2022/01/06 07:12:30;;;;;;;0.10;0.10;;;4.00;99.90;;;;;;5055147;28;20032;-72
2022/01/06 07:14:57;;;;;;;0.10;0.10;;;4.00;99.90;;;;;;5091000;28;20077;-71
2022/01/06 07:17:23;;;;;;;0.10;0.10;;;4.00;99.90;;;;;;5078189;28;20104;-71
2022/01/06 07:19:48;;;;;;;0.10;0.10;;;4.00;99.90;;;;;;5069794;28;20115;-71
2022/01/06 07:22:14;;;;;;;0.10;0.10;;;4.00;99.90;;;;;;5070789;28;20035;-71
2022/01/06 07:24:39;;;;;;;0.10;0.10;;;4.00;99.90;;;;;;5074407;28;20055;-71
2022/01/06 07:27:05;;;;;;;0.10;0.10;;;4.00;99.90;;;;;;5050950;28;20025;-72
2022/01/06 07:29:31;;;;;;;0.10;0.10;;;4.00;99.90;;;;;;5049711;28;20475;-72
2022/01/06 07:31:57;;;;;;;0.10;0.10;;;4.10;99.90;;;;;;5059626;28;20106;-71
2022/01/06 07:34:22;;;;;;;0.10;0.10;;;4.00;99.90;;;;;;5072731;28;20114;-71
2022/01/06 07:36:48;;;;;;;0.10;0.10;;;4.10;99.90;;;;;;5068694;22;20029;31
2022/01/06 07:39:13;;;;;;;0.10;0.10;;;4.20;99.90;;;;;;5016840;28;20454;-73
2022/01/06 07:41:39;;;;;;;0.10;0.10;;;4.20;99.90;;;;;;5030412;28;20079;-74
2022/01/06 07:44:07;;;;;;;0.10;0.10;;;4.10;99.90;;;;;;5027380;28;20518;-74
2022/01/06 07:46:34;;;;;;;0.10;0.10;;;4.20;99.90;;;;;;5029774;28;20033;-73
2022/01/06 07:49:00;;;;;;;0.10;0.10;;;4.20;99.90;;;;;;5030239;28;20052;-73
2022/01/06 07:51:31;;;;;;;0.10;0.10;;;4.20;99.90;;;;;;5028739;28;20025;-74
2022/01/06 07:53:58;;;;;;;0.10;0.10;;;4.10;99.90;;;;;;5028511;28;20021;-74
2022/01/06 07:56:24;;;;;;;0.10;0.10;;;4.10;99.90;;;;;;5029879;28;20159;-73
2022/01/06 07:58:50;;;;;;;0.10;0.10;;;4.00;99.90;;;;;;5025532;28;20029;-74
2022/01/06 08:01:17;;;;;;;0.10;0.10;;;4.00;99.90;;;;;;5028869;28;20029;-73
2022/01/06 08:03:43;;;;;;;0.10;0.10;;;3.90;99.90;;;;;;5046560;28;20033;-73
2022/01/06 08:06:09;;;;;;;0.10;0.10;;;3.90;99.90;;;;;;5049402;28;20400;-74
2022/01/06 08:08:35;;;;;;;0.10;0.10;;;3.90;99.90;;;;;;5029705;28;20497;-74
2022/01/06 08:11:02;;;;;;;0.10;0.10;;;3.90;99.90;;;;;;5017458;28;20030;-73
2022/01/06 08:13:28;;;;;;;0.10;0.10;;;3.80;99.90;;;;;;5042133;28;20516;-74
2022/01/06 08:15:53;;;;;;;0.10;0.10;;;3.80;99.90;;;;;;5024641;28;20061;-75
2022/01/06 08:18:19;;;;;;;0.10;0.10;;;3.80;99.90;;;;;;5032893;28;20420;-73
2022/01/06 08:20:45;;;;;;;0.10;0.10;;;3.80;99.90;;;;;;5015239;28;20483;-74
2022/01/06 08:23:10;;;;;;;0.10;0.10;;;3.80;99.90;;;;;;5037120;28;20108;-74
2022/01/06 08:25:37;;;;;;;0.10;0.10;;;3.80;99.90;;;;;;5049297;28;20421;-74
2022/01/06 08:28:03;;;;;;;0.10;0.10;;;3.40;99.90;;;;;;5034413;28;20502;-74
2022/01/06 08:30:29;;;;;;;0.10;0.10;;;3.80;99.90;;;;;;5009864;28;20048;-74
2022/01/06 08:32:55;;;;;;;0.10;0.10;;;3.80;99.90;;;;;;5030569;28;20124;-74
2022/01/06 08:35:22;;;;;;;0.10;0.10;;;3.80;99.90;;;;;;5029601;28;20491;-73
2022/01/06 08:37:48;;;;;;;0.10;0.10;;;3.80;99.90;;;;;;5026201;28;20534;-76
2022/01/06 08:40:13;;;;;;;0.10;0.10;;;3.80;99.90;;;;;;5027650;28;20112;-73
2022/01/06 08:42:39;;;;;;;0.10;0.10;;;3.80;99.90;;;;;;5024574;28;20037;-74
2022/01/06 08:45:06;;;;;;;0.10;0.10;;;3.80;99.90;;;;;;5030843;28;20118;-74
2022/01/06 08:47:32;;;;;;;0.47;0.47;;;3.80;99.90;;;;;;5015879;28;20567;-74
2022/01/06 08:49:58;;;;;;;0.10;0.10;;;3.90;99.90;;;;;;5026119;28;20029;-74
2022/01/06 08:52:24;;;;;;;2.08;1.65;;;3.90;99.90;;;;;;5029461;28;20475;-74
2022/01/06 08:54:50;;;;;;;0.10;0.10;;;3.90;99.90;;;;;;5032668;28;20032;-75
2022/01/06 08:57:16;;;;;;;0.10;0.10;;;3.90;99.90;;;;;;5009722;28;20038;-74
2022/01/06 08:59:42;;;;;;;0.40;0.40;;;4.00;99.90;;;;;;5021242;28;20022;-75
2022/01/06 09:02:08;;;;;;;0.10;0.10;;;4.00;99.90;;;;;;5018072;28;20356;-74
2022/01/06 09:04:34;;;;;;;0.75;0.75;;;4.00;99.90;;;;;;5019366;28;20525;-74
2022/01/06 09:07:02;;;;;;;0.10;0.10;;;4.00;99.90;;;;;;5034021;28;20032;-73
2022/01/06 09:09:27;;;;;;;0.10;0.10;;;4.10;99.90;;;;;;5049383;28;20018;-76
2022/01/06 09:11:53;;;;;;;0.10;0.10;;;4.10;99.90;;;;;;5031181;28;20057;-74
2022/01/06 09:14:19;;;;;;;0.10;0.10;;;4.10;99.90;;;;;;5029117;28;20033;-75
2022/01/06 09:16:44;;;;;;;0.10;0.10;;;4.10;99.90;;;;;;5023004;28;20030;-75
2022/01/06 09:19:10;;;;;;;0.45;0.45;;;4.10;99.90;;;;;;5017501;28;20058;-74
2022/01/06 09:21:36;;;;;;;0.10;0.10;;;4.10;99.90;;;;;;5029557;28;20038;-75
2022/01/06 09:24:06;;;;;;;0.10;0.10;;;4.20;99.90;;;;;;5029345;28;20030;-74
2022/01/06 09:26:35;;;;;;;0.10;0.10;;;4.20;99.90;;;;;;5029955;28;20451;-76
2022/01/06 09:29:04;;;;;;;0.10;0.10;;;4.30;99.90;;;;;;5019562;28;20057;-74
2022/01/06 09:31:38;;;;;;;0.10;0.10;;;4.40;99.90;;;;;;5009241;28;20144;-73
2022/01/06 09:34:04;;;;;;;0.10;0.10;;;4.50;99.90;;;;;;5026448;28;20025;-76
2022/01/06 09:36:31;;;;;;;0.10;0.10;;;4.50;99.90;;;;;;5039331;28;20043;-74
2022/01/06 09:38:59;;;;;;;0.10;0.10;;;4.60;99.90;;;;;;5025049;28;20040;-75
2022/01/06 09:41:26;;;;;;;0.10;0.10;;;4.60;99.90;;;;;;5009459;28;20065;-74
2022/01/06 09:43:54;;;;;;;0.10;0.10;;;4.70;99.90;;;;;;5022576;28;20124;-75
2022/01/06 09:46:20;;;;;;;0.10;0.10;;;4.70;99.90;;;;;;5022010;28;20026;-75
2022/01/06 09:48:48;;;;;;;0.10;0.10;;;4.70;99.90;;;;;;5011820;28;20075;-75
2022/01/06 09:51:26;;;;;;;1.10;1.05;;;4.60;99.90;;;;;;5042189;28;20021;-77
2022/01/06 09:53:53;;;;;;;0.10;0.10;;;4.60;99.90;;;;;;5036669;28;20513;-74
2022/01/06 09:56:20;;;;;;;0.10;0.10;;;4.70;99.90;;;;;;5028699;28;20586;-76
2022/01/06 09:58:46;;;;;;;0.10;0.10;;;4.80;99.90;;;;;;5032211;28;20026;-77
2022/01/06 10:01:12;;;;;;;0.10;0.10;;;4.80;99.90;;;;;;5038041;28;20029;-76
2022/01/06 10:03:41;;;;;;;0.10;0.10;;;4.80;99.90;;;;;;5026583;28;20563;-75
2022/01/06 10:06:15;;;;;;;0.10;0.10;;;4.80;99.90;;;;;;5025618;28;20025;-75
2022/01/06 10:08:42;;;;;;;0.10;0.10;;;4.80;99.90;;;;;;5025982;28;20025;-74
2022/01/06 10:11:20;;;;;;;0.10;0.10;;;4.80;99.90;;;;;;5026046;28;20056;-75
2022/01/06 10:13:55;;;;;;;0.10;0.10;;;4.90;99.90;;;;;;5025319;28;20493;-76
2022/01/06 10:16:26;;;;;;;0.10;0.10;;;4.90;99.90;;;;;;5019667;28;20056;-76
2022/01/06 10:19:14;;;;;;;0.10;0.10;;;4.90;99.90;;;;;;5032334;28;20475;-77
2022/01/06 10:21:42;;;;;;;0.10;0.10;;;5.00;99.90;;;;;;5044701;28;20045;-78
2022/01/06 10:24:17;;;;;;;0.10;0.10;;;5.00;99.90;;;;;;5037863;28;20108;-74
2022/01/06 10:27:06;;;;;;;0.10;0.10;;;4.90;99.90;;;;;;5030219;28;20164;-75
2022/01/06 10:29:40;;;;;;;0.10;0.10;;;4.90;99.90;;;;;;5025711;28;20025;-74
2022/01/06 10:32:14;;;;;;;0.10;0.10;;;4.80;99.90;;;;;;5021464;28;20387;-76
2022/01/06 10:34:50;;;;;;;0.10;0.10;;;4.70;99.90;;;;;;5021704;28;20041;-75
2022/01/06 10:37:35;;;;;;;0.10;0.10;;;4.70;99.90;;;;;;5043552;28;20101;-73
2022/01/06 10:40:03;;;;;;;0.10;0.10;;;4.70;99.90;;;;;;5029807;28;20035;-74
2022/01/06 10:42:32;;;;;;;0.10;0.10;;;4.70;99.90;;;;;;5023607;28;20033;-73
2022/01/06 10:45:04;;;;;;;0.10;0.10;;;4.70;99.90;;;;;;5025854;28;20017;-73
2022/01/06 10:47:45;;;;;;;0.10;0.10;;;4.70;99.90;;;;;;5021331;28;20042;-74
2022/01/06 10:50:14;;;;;;;0.10;0.10;;;4.90;99.90;;;;;;5025651;28;20368;-74
2022/01/06 10:52:42;;;;;;;1.52;1.42;;;4.80;99.90;;;;;;5029794;28;20025;-74
2022/01/06 10:55:13;;;;;;;0.10;0.10;;;4.80;99.90;;;;;;5013428;28;20098;-75
2022/01/06 10:57:55;;;;;;;0.10;0.10;;;4.80;99.90;;;;;;5024929;28;20535;-74
2022/01/06 11:00:23;;;;;;;0.10;0.10;;;4.90;99.90;;;;;;5029800;28;20034;-73
2022/01/06 11:02:51;;;;;;;0.10;0.10;;;4.90;99.90;;;;;;5028581;28;20034;-73
2022/01/06 11:05:17;;;;;;;0.10;0.10;;;5.00;99.90;;;;;;5026702;28;20063;-74
2022/01/06 11:07:43;;;;;;;0.10;0.10;;;5.00;99.90;;;;;;5026777;28;20025;-73
2022/01/06 11:10:19;;;;;;;0.10;0.10;;;5.00;99.90;;;;;;5027723;28;20033;-75
2022/01/06 11:12:45;;;;;;;0.10;0.10;;;5.10;99.90;;;;;;5029613;28;20045;-74
2022/01/06 11:15:11;;;;;;;0.10;0.10;;;5.30;99.90;;;;;;5036758;28;20049;-78
2022/01/06 11:17:37;;;;;;;0.00;0.00;;;5.30;99.90;;;;;;5031007;28;20047;-73
2022/01/06 11:20:03;;;;;;;0.10;0.10;;;5.30;99.90;;;;;;5030379;28;20029;-72
2022/01/06 11:22:29;;;;;;;0.10;0.10;;;5.40;99.90;;;;;;5026219;28;20445;-73
2022/01/06 11:25:02;;;;;;;0.10;0.10;;;5.20;99.90;;;;;;5028280;28;20029;-75
2022/01/06 11:27:29;;;;;;;;;;;5.20;99.90;;;;;;5028144;28;20033;-76
2022/01/06 11:30:05;;;;;;;0.10;0.10;;;5.10;99.90;;;;;;5029359;28;19916;-76
2022/01/06 11:32:31;;;;;;;0.10;0.10;;;5.10;99.90;;;;;;5022346;28;20063;-75
2022/01/06 11:35:11;;;;;;;0.85;0.85;;;5.10;99.90;;;;;;5026306;28;20037;-77
2022/01/06 11:37:47;;;;;;;0.10;0.10;;;5.10;99.90;;;;;;5032064;28;20033;-75
2022/01/06 11:40:15;;;;;;;0.10;0.10;;;5.10;99.90;;;;;;5029258;28;20021;-75
2022/01/06 11:42:53;;;;;;;0.10;0.10;;;5.20;99.90;;;;;;5030035;28;20032;-75
2022/01/06 11:45:19;;;;;;;0.10;0.10;;;5.40;99.90;;;;;;5027527;28;20026;-75
2022/01/06 11:47:45;;;;;;;0.10;0.10;;;5.40;99.90;;;;;;5029595;28;20059;-75
2022/01/06 11:50:25;;;;;;;0.10;0.10;;;5.40;99.90;;;;;;5029860;28;20104;-76
2022/01/06 11:52:59;;;;;;;0.08;0.08;;;5.40;99.90;;;;;;5029926;28;20109;-74
2022/01/06 11:55:33;;;;;;;0.00;0.00;;;5.50;99.90;;;;;;5028001;28;20037;-75
2022/01/06 11:58:11;;;;;;;0.10;0.10;;;5.60;99.90;;;;;;5029915;28;20060;-76
2022/01/06 12:00:39;;;;;;;0.00;0.00;;;5.60;99.90;;;;;;5027501;28;20029;-74
2022/01/06 12:03:07;;;;;;;0.10;0.10;;;5.40;99.90;;;;;;5024548;28;20050;-75
2022/01/06 12:05:43;;;;;;;0.10;0.10;;;5.50;99.90;;;;;;5032705;28;20131;-74
2022/01/06 12:08:09;;;;;;;0.10;0.10;;;5.50;99.90;;;;;;5027806;28;20032;-77
2022/01/06 12:10:43;;;;;;;0.10;0.10;;;5.60;99.90;;;;;;5029658;28;20021;-74
2022/01/06 12:13:09;;;;;;;0.10;0.10;;;5.50;99.90;;;;;;5026642;28;20017;-76
2022/01/06 12:15:48;;;;;;;3.25;1.25;;;5.60;99.90;;;;;;5030713;28;20455;-76
2022/01/06 12:18:18;;;;;;;0.10;0.10;;;5.70;99.90;;;;;;5026958;28;20112;-76
2022/01/06 12:20:45;;;;;;;0.10;0.10;;;5.80;99.90;;;;;;5026148;28;20017;-77
2022/01/06 12:23:11;;;;;;;0.10;0.10;;;5.80;99.90;;;;;;5026668;28;20506;-75
2022/01/06 12:25:37;;;;;;;0.22;0.22;;;5.70;99.90;;;;;;5025703;28;20045;-76
2022/01/06 12:28:02;;;;;;;0.10;0.10;;;5.80;99.90;;;;;;5029040;28;20044;-76
2022/01/06 12:30:34;;;;;;;0.10;0.10;;;5.50;99.90;;;;;;5026669;28;20337;-77
2022/01/06 12:33:03;;;;;;;0.10;0.10;;;5.50;99.90;;;;;;5030095;28;20033;-76
2022/01/06 12:35:34;;;;;;;0.10;0.10;;;5.50;99.90;;;;;;5026075;28;20056;-77
2022/01/06 12:38:00;;;;;;;0.10;0.10;;;5.40;99.90;;;;;;5029127;28;20036;-77
2022/01/06 12:40:40;;;;;;;0.10;0.10;;;5.20;99.90;;;;;;5023657;28;20034;-76
2022/01/06 12:43:22;;;;;;;0.10;0.10;;;5.20;99.90;;;;;;5030782;28;20507;-76
2022/01/06 12:46:00;;;;;;;0.10;0.10;;;5.30;99.90;;;;;;5024916;28;20044;-76
2022/01/06 12:48:31;;;;;;;0.10;0.10;;;5.30;99.90;;;;;;5025765;28;20022;-75
2022/01/06 12:50:57;;;;;;;0.10;0.10;;;5.20;99.90;;;;;;5029630;28;20021;-75
2022/01/06 12:53:34;;;;;;;0.10;0.10;;;5.20;99.90;;;;;;5027329;28;20064;-78
2022/01/06 12:56:02;;;;;;;0.10;0.10;;;5.10;99.90;;;;;;5026962;28;20030;-76
2022/01/06 12:58:36;;;;;;;0.10;0.10;;;5.20;99.90;;;;;;5025689;28;20032;-76
2022/01/06 13:01:10;;;;;;;0.10;0.10;;;5.10;99.90;;;;;;5028870;28;20073;-77
2022/01/06 13:03:39;;;;;;;0.10;0.10;;;5.20;99.90;;;;;;5027492;28;20033;-78
2022/01/06 13:06:11;;;;;;;0.10;0.10;;;5.20;99.90;;;;;;5023754;28;20227;-79
2022/01/06 13:09:21;;;;;;;0.10;0.10;;;5.30;99.90;;;;;;5025874;28;20025;-80
2022/01/06 13:11:52;;;;;;;0.10;0.10;;;5.40;99.90;;;;;;5020933;28;20121;-82